createdAt,value
2022-10-09T00:02:53.962Z,8.30
2022-10-09T00:05:55.954Z,8.07
2022-10-09T00:08:59.458Z,8.30
2022-10-09T00:12:02.076Z,7.90
2022-10-09T00:15:04.456Z,7.68
2022-10-09T00:18:08.101Z,7.90
2022-10-09T00:21:36.886Z,8.60
2022-10-09T00:24:39.253Z,7.57
2022-10-09T00:27:42.412Z,8.55
2022-10-09T00:30:44.998Z,8.40
2022-10-09T00:33:47.402Z,8.52
2022-10-09T00:36:49.648Z,8.10
2022-10-09T00:39:52.541Z,7.78
2022-10-09T00:42:59.311Z,8.95
2022-10-09T00:46:06.657Z,6.55
2022-10-09T00:49:18.275Z,8.25
2022-10-09T00:52:29.151Z,8.30
2022-10-09T00:55:35.082Z,8.20
2022-10-09T00:58:37.992Z,8.07
2022-10-09T01:01:42.821Z,7.90
2022-10-09T01:04:47.027Z,8.27
2022-10-09T01:08:06.536Z,8.15
2022-10-09T01:11:22.293Z,8.23
2022-10-09T01:14:32.783Z,7.80
2022-10-09T01:17:42.206Z,7.88
2022-10-09T01:21:10.921Z,7.72
2022-10-09T01:24:15.630Z,7.30
2022-10-09T01:27:24.548Z,7.35
2022-10-09T01:30:27.604Z,7.85
2022-10-09T01:33:40.184Z,7.22
2022-10-09T01:36:44.349Z,6.90
2022-10-09T01:40:15.806Z,6.90
2022-10-09T01:43:17.885Z,8.23
2022-10-09T01:46:29.373Z,8.57
2022-10-09T01:49:43.337Z,8.13
2022-10-09T01:53:01.804Z,9.00
2022-10-09T01:56:19.229Z,8.10
2022-10-09T01:59:24.545Z,8.48
2022-10-09T02:02:28.085Z,8.55
2022-10-09T02:05:32.823Z,9.35
2022-10-09T02:08:40.511Z,8.48
2022-10-09T02:11:50.161Z,7.75
2022-10-09T02:14:52.208Z,8.70
2022-10-09T02:18:02.875Z,7.60
2022-10-09T02:21:21.191Z,8.38
2022-10-09T02:24:24.193Z,7.63
2022-10-09T02:27:27.830Z,8.35
2022-10-09T02:30:39.457Z,7.90
2022-10-09T02:33:42.572Z,7.72
2022-10-09T02:36:44.571Z,7.53
2022-10-09T02:39:47.222Z,8.00
2022-10-09T02:42:49.933Z,7.38
2022-10-09T02:45:52.305Z,7.85
2022-10-09T02:48:54.374Z,7.32
2022-10-09T02:51:56.415Z,8.63
2022-10-09T02:54:58.456Z,8.88
2022-10-09T02:58:00.583Z,7.50
2022-10-09T03:01:05.130Z,8.95
2022-10-09T03:04:07.167Z,7.30
2022-10-09T03:07:09.384Z,8.05
2022-10-09T03:10:11.311Z,8.30
2022-10-09T03:13:13.425Z,7.82
2022-10-09T03:16:18.670Z,8.20
2022-10-09T03:19:20.744Z,8.50
2022-10-09T03:22:23.233Z,11.57
2022-10-09T03:25:25.364Z,11.02
2022-10-09T03:28:28.028Z,8.88
2022-10-09T03:34:52.206Z,7.30
2022-10-09T03:37:54.238Z,7.40
2022-10-09T03:40:58.854Z,6.97
2022-10-09T03:44:01.062Z,6.40
2022-10-09T03:47:03.167Z,7.20
2022-10-09T03:50:07.042Z,7.25
2022-10-09T03:53:11.539Z,7.78
2022-10-09T03:56:13.743Z,7.88
2022-10-09T03:59:15.781Z,7.28
2022-10-09T04:02:17.788Z,6.90
2022-10-09T04:05:20.465Z,8.05
2022-10-09T04:08:22.457Z,7.25
2022-10-09T04:11:24.529Z,7.30
2022-10-09T04:14:26.539Z,7.40
2022-10-09T04:17:29.088Z,7.97
2022-10-09T04:20:31.617Z,7.63
2022-10-09T04:23:35.088Z,7.80
2022-10-09T04:26:37.221Z,7.13
2022-10-09T04:29:42.046Z,7.40
2022-10-09T04:32:44.126Z,7.35
2022-10-09T04:35:49.600Z,7.40
2022-10-09T04:38:52.847Z,6.88
2022-10-09T04:41:54.926Z,7.40
2022-10-09T04:44:56.988Z,6.95
2022-10-09T04:47:59.440Z,7.13
2022-10-09T04:51:04.946Z,1.63
2022-10-09T04:54:08.637Z,7.93
2022-10-09T04:57:12.743Z,8.20
2022-10-09T05:00:15.447Z,7.53
2022-10-09T05:03:18.775Z,8.00
2022-10-09T05:06:23.075Z,8.02
2022-10-09T05:09:25.476Z,8.13
2022-10-09T05:12:29.588Z,7.28
2022-10-09T05:15:32.392Z,8.25
2022-10-09T05:18:45.158Z,7.93
2022-10-09T05:21:48.184Z,6.10
2022-10-09T05:24:50.250Z,7.65
2022-10-09T05:27:52.379Z,6.53
2022-10-09T05:30:59.347Z,5.75
2022-10-09T05:34:02.290Z,6.38
2022-10-09T05:37:04.332Z,5.78
2022-10-09T05:40:07.102Z,6.70
2022-10-09T05:43:09.213Z,6.97
2022-10-09T05:46:15.650Z,6.90
2022-10-09T05:49:17.872Z,8.45
2022-10-09T05:52:20.615Z,8.75
2022-10-09T05:55:22.585Z,7.30
2022-10-09T05:58:25.811Z,6.72
2022-10-09T06:01:32.932Z,7.43
2022-10-09T06:04:35.057Z,7.95
2022-10-09T06:07:38.249Z,8.05
2022-10-09T06:10:40.407Z,8.63
2022-10-09T06:13:43.872Z,8.57
2022-10-09T06:16:46.347Z,7.72
2022-10-09T06:19:48.647Z,10.27
2022-10-09T06:22:51.844Z,9.77
2022-10-09T06:25:59.601Z,10.82
2022-10-09T06:29:02.863Z,9.93
2022-10-09T06:32:04.960Z,11.60
2022-10-09T06:35:07.804Z,11.07
2022-10-09T06:38:10.783Z,11.68
2022-10-09T06:41:24.465Z,11.27
2022-10-09T06:44:26.901Z,9.48
2022-10-09T06:47:31.723Z,11.45
2022-10-09T06:50:37.367Z,9.90
2022-10-09T06:53:43.270Z,12.68
2022-10-09T06:56:45.452Z,9.23
2022-10-09T06:59:50.291Z,8.10
2022-10-09T07:02:53.014Z,8.18
2022-10-09T07:06:05.105Z,8.40
2022-10-09T07:09:10.266Z,7.70
2022-10-09T07:12:13.157Z,9.68
2022-10-09T07:15:15.430Z,7.38
2022-10-09T07:18:17.741Z,7.40
2022-10-09T07:21:20.162Z,6.45
2022-10-09T07:24:25.247Z,6.10
2022-10-09T07:27:28.565Z,6.63
2022-10-09T07:30:30.960Z,6.63
2022-10-09T07:33:33.467Z,6.05
2022-10-09T07:36:36.026Z,6.65
2022-10-09T07:39:40.578Z,6.85
2022-10-09T07:42:44.971Z,7.22
2022-10-09T07:45:48.737Z,8.55
2022-10-09T07:48:51.642Z,7.32
2022-10-09T07:51:55.857Z,6.10
2022-10-09T07:54:58.116Z,6.45
2022-10-09T07:58:00.298Z,6.85
2022-10-09T08:01:08.629Z,7.00
2022-10-09T08:04:11.047Z,4.78
2022-10-09T08:07:14.744Z,5.57
2022-10-09T08:10:18.268Z,6.50
2022-10-09T08:13:21.623Z,5.20
2022-10-09T08:16:25.605Z,5.75
2022-10-09T08:19:27.704Z,6.38
2022-10-09T08:22:32.745Z,5.78
2022-10-09T08:25:37.063Z,5.80
2022-10-09T08:28:39.189Z,6.18
2022-10-09T08:31:41.347Z,4.85
2022-10-09T08:34:43.561Z,5.45
2022-10-09T08:37:46.869Z,5.90
2022-10-09T08:41:00.954Z,5.47
2022-10-09T08:44:20.946Z,5.70
2022-10-09T08:47:41.279Z,5.35
2022-10-09T08:50:49.429Z,5.53
2022-10-09T08:53:58.968Z,5.90
2022-10-09T08:57:04.407Z,4.85
2022-10-09T09:00:18.136Z,4.70
2022-10-09T09:03:45.374Z,5.35
2022-10-09T09:07:06.220Z,6.05
2022-10-09T09:10:24.397Z,5.15
2022-10-09T09:13:38.671Z,3.90
2022-10-09T09:17:11.488Z,3.67
2022-10-09T09:20:30.275Z,4.10
2022-10-09T09:23:40.908Z,3.72
2022-10-09T09:26:45.662Z,3.95
2022-10-09T09:30:19.870Z,3.03
2022-10-09T09:33:50.516Z,3.78
2022-10-09T09:36:57.598Z,2.97
2022-10-09T09:43:24.163Z,3.22
2022-10-09T09:46:31.155Z,3.40
2022-10-09T09:49:34.207Z,3.15
2022-10-09T09:52:40.748Z,4.07
2022-10-09T09:55:43.043Z,3.50
2022-10-09T09:58:48.440Z,3.80
2022-10-09T10:02:00.589Z,3.53
2022-10-09T10:05:15.907Z,3.35
2022-10-09T10:08:34.753Z,3.28
2022-10-09T10:11:37.565Z,2.60
2022-10-09T10:14:51.028Z,3.60
2022-10-09T10:18:10.880Z,4.53
2022-10-09T10:21:17.172Z,2.65
2022-10-09T10:24:28.066Z,3.08
2022-10-09T10:27:40.808Z,3.25
2022-10-09T10:30:44.004Z,3.20
2022-10-09T10:33:54.262Z,3.70
2022-10-09T10:37:15.712Z,4.53
2022-10-09T10:40:31.180Z,3.85
2022-10-09T10:43:51.667Z,4.53
2022-10-09T10:47:02.048Z,5.60
2022-10-09T10:50:05.207Z,5.97
2022-10-09T10:53:29.428Z,7.13
2022-10-09T10:56:38.230Z,5.88
2022-10-09T11:00:04.237Z,6.30
2022-10-09T11:03:34.624Z,6.25
2022-10-09T11:07:00.701Z,8.20
2022-10-09T11:10:54.899Z,7.05
2022-10-09T11:14:21.967Z,6.85
2022-10-09T11:17:55.891Z,7.25
2022-10-09T11:21:13.595Z,7.72
2022-10-09T11:24:44.504Z,6.13
2022-10-09T11:27:54.939Z,7.57
2022-10-09T11:34:37.758Z,6.45
2022-10-09T11:37:42.329Z,6.53
2022-10-09T11:40:44.497Z,8.95
2022-10-09T11:44:02.617Z,7.05
2022-10-09T11:47:16.854Z,7.93
2022-10-09T11:50:42.978Z,6.18
2022-10-09T11:53:46.448Z,8.48
2022-10-09T11:57:06.121Z,7.38
2022-10-09T12:00:10.604Z,8.52
2022-10-09T12:03:33.779Z,7.22
2022-10-09T12:06:47.958Z,9.30
2022-10-09T12:09:59.843Z,10.00
2022-10-09T12:13:08.447Z,9.25
2022-10-09T12:16:50.337Z,8.00
2022-10-09T12:20:00.082Z,7.20
2022-10-09T12:23:27.070Z,7.20
2022-10-09T12:26:31.345Z,8.57
2022-10-09T12:29:44.699Z,9.00
2022-10-09T12:32:54.489Z,9.02
2022-10-09T12:36:03.939Z,7.07
2022-10-09T12:39:23.404Z,7.72
2022-10-09T12:42:25.582Z,4.50
2022-10-09T12:45:30.691Z,8.23
2022-10-09T12:48:39.017Z,9.10
2022-10-09T12:51:41.066Z,6.88
2022-10-09T12:54:45.178Z,6.05
2022-10-09T12:57:47.590Z,8.05
2022-10-09T13:00:53.739Z,6.28
2022-10-09T13:04:04.735Z,6.95
2022-10-09T13:07:18.783Z,5.85
2022-10-09T13:10:23.503Z,6.68
2022-10-09T13:13:28.367Z,6.95
2022-10-09T13:16:45.115Z,6.93
2022-10-09T13:19:54.962Z,6.93
2022-10-09T13:23:02.781Z,6.60
2022-10-09T13:26:07.706Z,4.60
2022-10-09T13:29:14.383Z,6.45
2022-10-09T13:32:18.465Z,4.68
2022-10-09T13:35:26.567Z,3.45
2022-10-09T13:38:34.610Z,4.35
2022-10-09T13:44:39.698Z,4.68
2022-10-09T13:47:41.902Z,6.18
2022-10-09T13:50:44.747Z,5.03
2022-10-09T13:53:47.052Z,5.35
2022-10-09T13:56:55.555Z,5.75
2022-10-09T13:59:58.409Z,6.22
2022-10-09T14:03:01.733Z,5.65
2022-10-09T14:06:03.921Z,5.75
2022-10-09T14:09:06.752Z,4.28
2022-10-09T14:12:09.077Z,5.63
2022-10-09T14:15:11.298Z,5.95
2022-10-09T14:18:13.406Z,4.85
2022-10-09T14:21:15.942Z,5.55
2022-10-09T14:24:19.539Z,6.32
2022-10-09T14:27:21.654Z,6.72
2022-10-09T14:30:23.793Z,7.15
2022-10-09T14:33:26.570Z,7.63
2022-10-09T14:36:29.263Z,7.47
2022-10-09T14:39:31.369Z,8.57
2022-10-09T14:42:33.395Z,8.40
2022-10-09T14:45:35.435Z,9.93
2022-10-09T14:48:38.159Z,9.60
2022-10-09T14:51:41.340Z,10.20
2022-10-09T14:54:43.337Z,9.77
2022-10-09T14:57:45.457Z,10.27
2022-10-09T15:00:47.751Z,8.95
2022-10-09T15:03:50.111Z,9.93
2022-10-09T15:06:52.431Z,8.57
2022-10-09T15:09:58.106Z,7.82
2022-10-09T15:13:00.088Z,8.15
2022-10-09T15:16:04.886Z,9.55
2022-10-09T15:19:06.929Z,10.27
2022-10-09T15:22:09.030Z,9.23
2022-10-09T15:25:13.479Z,10.75
2022-10-09T15:28:17.234Z,9.65
2022-10-09T15:31:28.320Z,9.63
2022-10-09T15:34:31.026Z,12.00
2022-10-09T15:37:33.192Z,10.82
2022-10-09T15:40:47.189Z,9.65
2022-10-09T15:43:50.482Z,10.25
2022-10-09T15:46:52.784Z,10.43
2022-10-09T15:49:54.818Z,10.20
2022-10-09T15:52:57.047Z,11.73
2022-10-09T15:56:05.538Z,13.02
2022-10-09T15:59:10.792Z,10.45
2022-10-09T16:02:13.317Z,9.40
2022-10-09T16:05:15.472Z,9.30
2022-10-09T16:08:19.045Z,8.05
2022-10-09T16:11:24.963Z,8.90
2022-10-09T16:14:30.471Z,8.13
2022-10-09T16:17:32.563Z,7.82
2022-10-09T16:20:35.857Z,7.00
2022-10-09T16:23:38.000Z,9.23
2022-10-09T16:26:40.051Z,10.35
2022-10-09T16:29:42.228Z,9.93
2022-10-09T16:32:44.238Z,8.60
2022-10-09T16:35:46.719Z,8.23
2022-10-09T16:38:49.055Z,9.60
2022-10-09T16:41:50.974Z,9.43
2022-10-09T16:44:53.114Z,9.00
2022-10-09T16:48:00.135Z,8.52
2022-10-09T16:51:02.257Z,9.52
2022-10-09T16:54:05.761Z,7.05
2022-10-09T16:57:08.490Z,7.75
2022-10-09T17:00:11.101Z,7.65
2022-10-09T17:03:13.178Z,7.65
2022-10-09T17:06:19.845Z,8.00
2022-10-09T17:09:22.152Z,7.13
2022-10-09T17:12:24.821Z,5.30
2022-10-09T17:15:26.943Z,6.63
2022-10-09T17:18:30.082Z,5.95
2022-10-09T17:21:34.539Z,5.32
2022-10-09T17:24:37.283Z,5.57
2022-10-09T17:27:39.828Z,5.88
2022-10-09T17:30:41.953Z,5.75
2022-10-09T17:33:46.422Z,5.82
2022-10-09T17:36:48.521Z,6.40
2022-10-09T17:39:52.919Z,6.32
2022-10-09T17:42:55.036Z,5.30
2022-10-09T17:45:57.358Z,5.57
2022-10-09T17:49:02.904Z,5.95
2022-10-09T17:52:05.931Z,5.65
2022-10-09T17:55:08.655Z,5.50
2022-10-09T17:58:12.644Z,6.50
2022-10-09T18:01:16.083Z,5.38
2022-10-09T18:04:20.167Z,4.32
2022-10-09T18:07:22.775Z,5.43
2022-10-09T18:10:25.610Z,6.15
2022-10-09T18:13:28.365Z,4.35
2022-10-09T18:16:36.178Z,5.78
2022-10-09T18:19:38.613Z,4.85
2022-10-09T18:22:41.541Z,5.10
2022-10-09T18:25:44.828Z,5.95
2022-10-09T18:28:48.856Z,5.03
2022-10-09T18:31:55.848Z,5.80
2022-10-09T18:34:58.217Z,6.55
2022-10-09T18:38:00.383Z,5.18
2022-10-09T18:41:02.452Z,5.20
2022-10-09T18:44:05.630Z,4.50
2022-10-09T18:47:13.323Z,5.75
2022-10-09T18:50:17.263Z,5.63
2022-10-09T18:53:19.410Z,5.57
2022-10-09T18:56:22.989Z,4.75
2022-10-09T18:59:25.152Z,5.47
2022-10-09T19:02:32.187Z,4.68
2022-10-09T19:05:34.387Z,4.53
2022-10-09T19:08:38.607Z,5.20
2022-10-09T19:11:40.774Z,4.03
2022-10-09T19:14:43.841Z,4.28
2022-10-09T19:17:48.294Z,3.92
2022-10-09T19:20:50.672Z,5.43
2022-10-09T19:23:54.369Z,4.13
2022-10-09T19:27:01.188Z,5.03
2022-10-09T19:30:04.959Z,4.53
2022-10-09T19:33:07.006Z,3.75
2022-10-09T19:36:12.014Z,4.38
2022-10-09T19:39:14.628Z,4.70
2022-10-09T19:42:19.099Z,4.18
2022-10-09T19:45:21.538Z,4.22
2022-10-09T19:48:25.405Z,4.63
2022-10-09T19:51:28.753Z,5.13
2022-10-09T19:54:35.688Z,3.58
2022-10-09T19:57:37.795Z,3.75
2022-10-09T20:00:45.284Z,4.07
2022-10-09T20:03:48.948Z,4.25
2022-10-09T20:06:52.116Z,4.75
2022-10-09T20:09:54.193Z,3.80
2022-10-09T20:12:57.482Z,3.50
2022-10-09T20:16:01.136Z,3.58
2022-10-09T20:19:04.870Z,5.18
2022-10-09T20:22:07.907Z,4.15
2022-10-09T20:25:11.119Z,4.05
2022-10-09T20:28:14.753Z,4.15
2022-10-09T20:31:20.797Z,3.85
2022-10-09T20:34:25.123Z,5.10
2022-10-09T20:37:27.629Z,4.10
2022-10-09T20:40:29.662Z,4.40
2022-10-09T20:43:32.109Z,4.22
2022-10-09T20:46:36.595Z,4.45
2022-10-09T20:49:44.255Z,3.63
2022-10-09T20:52:47.992Z,3.83
2022-10-09T20:55:50.288Z,4.00
2022-10-09T20:58:53.030Z,4.28
2022-10-09T21:01:55.509Z,4.55
2022-10-09T21:04:59.975Z,3.80
2022-10-09T21:08:02.064Z,4.68
2022-10-09T21:11:07.095Z,4.07
2022-10-09T21:14:10.904Z,4.30
2022-10-09T21:17:13.165Z,4.50
2022-10-09T21:20:15.962Z,4.70
2022-10-09T21:23:18.924Z,5.03
2022-10-09T21:26:23.093Z,4.53
2022-10-09T21:29:27.250Z,3.70
2022-10-09T21:32:29.745Z,4.43
2022-10-09T21:35:38.559Z,4.82
2022-10-09T21:38:41.370Z,4.80
2022-10-09T21:41:43.997Z,3.80
2022-10-09T21:44:46.095Z,3.92
2022-10-09T21:47:49.073Z,4.22
2022-10-09T21:50:51.593Z,4.10
2022-10-09T21:53:55.843Z,4.18
2022-10-09T21:56:58.492Z,4.90
2022-10-09T22:00:00.767Z,3.17
2022-10-09T22:03:02.991Z,3.35
2022-10-09T22:06:17.744Z,3.30
2022-10-09T22:09:20.985Z,3.92
2022-10-09T22:12:23.276Z,3.33
2022-10-09T22:15:26.289Z,3.65
2022-10-09T22:18:28.633Z,3.92
2022-10-09T22:21:30.684Z,3.83
2022-10-09T22:24:32.848Z,4.20
2022-10-09T22:27:35.077Z,3.75
2022-10-09T22:30:37.964Z,4.10
2022-10-09T22:33:40.830Z,3.83
2022-10-09T22:36:44.065Z,3.17
2022-10-09T22:39:46.123Z,4.30
2022-10-09T22:42:49.342Z,3.53
2022-10-09T22:45:52.490Z,3.25
2022-10-09T22:48:54.726Z,3.40
2022-10-09T22:51:57.535Z,3.65
2022-10-09T22:55:00.799Z,2.80
2022-10-09T22:58:02.770Z,2.50
2022-10-09T23:01:08.266Z,3.40
2022-10-09T23:04:14.544Z,2.33
2022-10-09T23:07:16.615Z,3.47
2022-10-09T23:10:20.488Z,2.85
2022-10-09T23:13:22.551Z,2.80
2022-10-09T23:16:29.892Z,3.35
2022-10-09T23:19:31.999Z,3.35
2022-10-09T23:22:34.093Z,3.00
2022-10-09T23:25:40.487Z,3.17
2022-10-09T23:28:44.299Z,2.85
2022-10-09T23:31:52.765Z,2.78
2022-10-09T23:34:55.305Z,3.35
2022-10-09T23:37:57.484Z,2.35
2022-10-09T23:41:02.588Z,2.83
2022-10-09T23:44:05.437Z,2.40
2022-10-09T23:47:09.340Z,2.90
2022-10-09T23:50:11.820Z,3.20
2022-10-09T23:53:14.216Z,2.78
2022-10-09T23:56:23.782Z,3.22
